Share

Casper, WY

North of Casper, WY (KWYBARNU1) Elev 5325 ft | 42.91 °N, 106.35 °W | Change Station

Current weather conditions updated 4 minutes ago

Clear
Clear
44.6 °F
Feels Like 45 °F
N
0.0
Wind Variable Wind from North
Gusts 0.0 mph
Sunrise 6:18 AM
Sunset 7:51 PM
Moon Waning Gibbous

Today is forecast to be Much Warmer than yesterday.

Pressure 29.81 in
Visibility 10.0 miles
Clouds Clear
Windchill 45 °F
Dew Point 25 °F
Humidity 46%
Rainfall 0.00 in
Snow Depth Not available.
UV 0 out of 16
Pollen 9.30 out of 12
Air Quality Not available.
Flu Activity Sporadic
METAR KCPR 180653Z AUTO 24011KT 10SM CLR 06/M03 A2989 RMK AO2 SLP093 T00611028 401721017

More Conditions Fewer Conditions

Pressure 29.81 in
Visibility 10.0 miles
Clouds Clear
Windchill 45 °F
Dew Point 25 °F
Humidity 46%
Rainfall 0.00 in
Snow Depth Not available.
UV 0 out of 16
Pollen 9.30 out of 12
Air Quality Not available.
Flu Activity Sporadic
METAR KCPR 180653Z AUTO 24011KT 10SM CLR 06/M03 A2989 RMK AO2 SLP093 T00611028 401721017

More Conditions Fewer Conditions

10-Day Forecast

Almanac

Astronomy

Apr. 18, 2014 Rise Set
Actual Time 6:18 AM MDT 7:51 PM MDT
Civil Twilight 5:49 AM MDT 8:20 PM MDT
Nautical Twilight 5:13 AM MDT 8:56 PM MDT
Astronomical Twilight 4:35 AM MDT 9:35 PM MDT
Moon 11:42 PM MDT 8:40 AM MDT
Length of Visible Light 14h 31m
Length of Day
13h 32m
Tomorrow will be 2m 45s longer.
Waning Gibbous, 90% of the Moon is Illuminated
Today
Waning Gibbous
Apr 22
Last Quarter
Apr 29
New
May 6
First Quarter
May 14
Full

Today's Extremes

State Highs State Lows

Community

  • SUNRISE THROUGH THE TREES.
    SUNRISE THROUGH THE TREES.
  • Dog Wood Blossoms
    Dog Wood Blossoms
  • Morning Light
    Morning Light
  • New Day
    New Day
  • Lake Michigan Sunrise
    Lake Michigan Sunrise

WunderPhotos

Upload Photos

1,702,279 photos uploaded!

WunderBlogs® & News

Nearby

Snow Depth

Station Depth Elevation
Casper Mountain 54 in 7850 ft
Reno Hill 60 in 8500 ft
Laprele Creek 28 in 8375 ft
Windy Peak 28 in 7900 ft
Sand Lake 98 in 10050 ft

Coastal Water Temperatures

Place Temperature
No Stations Reporting

Earthquake Activity

City Distance Mag. Time & Date
No recent earthquake activity has been reported nearby.
Minimum magnitude displayed is 2.5.

Nearby Weather Stations

Station Location Temp. Windchill Dew Point Humidity Wind Precip. Elev Updated Type
HADS MILLS TEST STATION WY, Casper, WY 53 °F - - - North  at  - 0.00 in / hr 5148 ft 12:00 AM MDT MADIS
North of Casper, WY, Bar Nunn, WY 44.6 °F 45 °F 25 °F 46% North  at  0.0 mph 0.00 in / hr 5325 ft 1:34 AM MDT Normal
North of Rolling Hills WY, Glenrock, WY 41.3 °F 37 °F 29 °F 61% SW  at  6.0 mph 0.00 in / hr 5384 ft 1:38 AM MDT Rapid Fire
RAWS CASPER MOUNTAIN WY, Casper, WY 42 °F 37 °F 20 °F 41% SSW  at  8 mph 0.00 in / hr 7740 ft 12:52 AM MDT MADIS

Show More Stations Show Fewer Stations

What do you think?

We're not finished. Please let us know what you like, what you don't like, and what you are still missing.